Terminal Aerodrome Forecast
Issued by NWS

Home | Current Version | Previous Version | Text Only | Print | Product List | Glossary On
Versions: 1 2 3 4 5 6 7 8 9 10 11 12 13 14 15 16 17 18 19 20 21 22 23 24 25 26 27 28 29 30 31 32 33 34 35
000
FTUS41 KRNK 292321
TAFBCB
TAF
KBCB 292321Z 3000/3024 20006KT P6SM BKN050 BKN080
     FM300500 00000KT P6SM VCSH FEW025 BKN040
     FM300900 00000KT 4SM BR BKN025
     FM301200 VRB03KT P6SM SCT025 BKN040
     FM301800 24007KT P6SM BKN050=

USA.gov is the U.S. government's official web portal to all federal, state and local government web resources and services.